Hanjin Irene — H3QD — position and weather

sailwx.info

Track history (hours):
 
Tides and Currents Weather Stations Pressure Air Temp Water Temp Dewpoint Dewpoint Depression Visibility Wind Speed Wind Dir Waves Ship Positions

Hanjin Irene

Last reported at 2018-May-27 16:50 UTC. Time now 2018-May-28 01:22 UTC.
Position N 37°40' E 023°42'.

Length 107 m; draft 2.5 m.

Type: Cargo ship. MMSI: 320228000.

Date/timePositionNaut miles runAvg speedWind from/ knotsBaromVisibWave heightAir tempDewpointWater temp
2018-May-27 16:50N 37°40' E 023°42'2 6.9
2018-May-27 16:29N 37°42' E 023°41'3 7.3
2018-May-27 16:01N 37°46' E 023°38'4 7.6
2018-May-27 15:31N 37°49' E 023°36'5 7.3
2018-May-27 14:53N 37°50' E 023°30'3 7.1
2018-May-27 14:30N 37°50' E 023°27'4 7.2
2018-May-27 13:58N 37°51' E 023°22'3 7.2
2018-May-27 13:30N 37°51' E 023°18'4 7.2
2018-May-27 13:00N 37°52' E 023°14'4 7.2
2018-May-27 12:31N 37°52' E 023°09'4 7.4
2018-May-27 12:01N 37°53' E 023°04'3 6.8
2018-May-27 11:31N 37°55' E 023°01'3 4.4
2018-May-27 10:55N 37°57' E 022°58'2 5.3
2018-May-27 10:31N 37°58' E 022°56'3 5.7
2018-May-27 10:01N 37°59' E 022°53'  
2018-May-18 03:28N 38°02' E 022°48'4 7.6
2018-May-18 03:00N 38°00' E 022°52'4 7.4
2018-May-18 02:30N 37°58' E 022°55'5 5.4
2018-May-18 01:38N 37°55' E 023°00'1 4.9
2018-May-18 01:30N 37°55' E 023°01'1 1.9
2018-May-18 01:00N 37°55' E 023°02'0 0.9
2018-May-18 00:30N 37°54' E 023°02'3 6.6
2018-May-18 00:00N 37°53' E 023°06'4 7.4
2018-May-17 23:30N 37°53' E 023°11'4 7.4
2018-May-17 23:00N 37°52' E 023°16'4 7.6
2018-May-17 22:30N 37°52' E 023°20'4 7.7
2018-May-17 22:00N 37°51' E 023°25'4 7.7
2018-May-17 21:30N 37°50' E 023°30'4 7.6
2018-May-17 20:59N 37°50' E 023°35'3 6.9
2018-May-17 20:30N 37°50' E 023°39'4 7.5
2018-May-17 20:00N 37°47' E 023°41'4 7.3
2018-May-17 19:30N 37°43' E 023°43'  
Track history (hours):
 
Tides and Currents Weather Stations Pressure Air Temp Water Temp Dewpoint Dewpoint Depression Visibility Wind Speed Wind Dir Waves Ship Positions

Hanjin Irene

Last reported at 2018-May-27 16:50 UTC. Time now 2018-May-28 01:22 UTC.
Position N 37°40' E 023°42'.

Length 107 m; draft 2.5 m.

Type: Cargo ship. MMSI: 320228000.

Date/timePositionNaut miles runAvg speedWind from/ knotsBaromVisibWave heightAir tempDewpointWater temp
2018-May-27 16:50N 37°40' E 023°42'2 6.9
2018-May-27 16:29N 37°42' E 023°41'3 7.3
2018-May-27 16:01N 37°46' E 023°38'4 7.6
2018-May-27 15:31N 37°49' E 023°36'5 7.3
2018-May-27 14:53N 37°50' E 023°30'3 7.1
2018-May-27 14:30N 37°50' E 023°27'4 7.2
2018-May-27 13:58N 37°51' E 023°22'3 7.2
2018-May-27 13:30N 37°51' E 023°18'4 7.2
2018-May-27 13:00N 37°52' E 023°14'4 7.2
2018-May-27 12:31N 37°52' E 023°09'4 7.4
2018-May-27 12:01N 37°53' E 023°04'3 6.8
2018-May-27 11:31N 37°55' E 023°01'3 4.4
2018-May-27 10:55N 37°57' E 022°58'2 5.3
2018-May-27 10:31N 37°58' E 022°56'3 5.7
2018-May-27 10:01N 37°59' E 022°53'  
2018-May-18 03:28N 38°02' E 022°48'4 7.6
2018-May-18 03:00N 38°00' E 022°52'4 7.4
2018-May-18 02:30N 37°58' E 022°55'5 5.4
2018-May-18 01:38N 37°55' E 023°00'1 4.9
2018-May-18 01:30N 37°55' E 023°01'1 1.9
2018-May-18 01:00N 37°55' E 023°02'0 0.9
2018-May-18 00:30N 37°54' E 023°02'3 6.6
2018-May-18 00:00N 37°53' E 023°06'4 7.4
2018-May-17 23:30N 37°53' E 023°11'4 7.4
2018-May-17 23:00N 37°52' E 023°16'4 7.6
2018-May-17 22:30N 37°52' E 023°20'4 7.7
2018-May-17 22:00N 37°51' E 023°25'4 7.7
2018-May-17 21:30N 37°50' E 023°30'4 7.6
2018-May-17 20:59N 37°50' E 023°35'3 6.9
2018-May-17 20:30N 37°50' E 023°39'4 7.5
2018-May-17 20:00N 37°47' E 023°41'4 7.3
2018-May-17 19:30N 37°43' E 023°43'  

Dump ship's entire track history